Eefde, Netherlands
Current Conditions -  °F | °C
As of 1:55 AM on Tuesday 27 Jan 2015 (Local Time) from EHDL Reporting Station
Broken Clouds Broken Clouds  
Wind Chill: 30°   Ceiling: 2700
Heat Index: 36°   Visibility: 6mi
Dew Point: 34°   Wind: 7mph
Humidity: 93%   Direction: 280°W
Pressure: 30.12"   Gusts: NA
Location:  52.17°N, 6.23°E
Report Text: EHDL 270055Z AUTO 28006KT 9999 BKN027 BKN030 BKN035 02/01 Q1020 BLU
Loading
Personal Weather Stations






























Interactive Weather Map New forecast layout! Learn more

10-Day Weather Forecast

Advertisements
Track Severe Weather on mobile